Time;durP1;ratioP1;P1;durP2;ratioP2;P2;SDS_P1;SDS_P2;PMS_P1;PMS_P2;Temp;Humidity;BMP_temperature;BMP_pressure;BME280_temperature;BME280_humidity;BME280_pressure;Samples;Min_cycle;Max_cycle;Signal;HPM_P1;HPM_P2
2021/12/22 00:02:14;;;;;;;30.42;21.52;;;;;;;;;;5135296;27;20525;-68
2021/12/22 00:04:45;;;;;;;35.08;21.55;;;;;;;;;;5121915;27;20052;-68
2021/12/22 00:07:12;;;;;;;37.97;20.58;;;;;;;;;;5114979;28;20063;-68
2021/12/22 00:09:39;;;;;;;35.30;20.77;;;;;;;;;;5118705;27;20060;-68
2021/12/22 00:12:05;;;;;;;30.83;19.95;;;;;;;;;;5114966;28;20529;-68
2021/12/22 00:14:31;;;;;;;37.70;21.90;;;;;;;;;;5120620;27;20047;-68
2021/12/22 00:16:58;;;;;;;41.85;23.40;;;;;;;;;;5114867;28;20047;-69
2021/12/22 00:19:24;;;;;;;37.03;22.33;;;;;;;;;;5115079;28;20055;-68
2021/12/22 00:21:50;;;;;;;33.15;21.23;;;;;;;;;;5117628;27;20047;-70
2021/12/22 00:24:17;;;;;;;36.33;21.55;;;;;;;;;;5134582;27;20415;-68
2021/12/22 00:26:43;;;;;;;33.17;19.80;;;;;;;;;;5134141;27;20112;-66
2021/12/22 00:29:10;;;;;;;35.53;21.15;;;;;;;;;;5135205;27;20054;-67
2021/12/22 00:31:56;;;;;;;31.70;21.77;;;;;;;;;;5133323;27;20052;-67
2021/12/22 00:34:25;;;;;;;;;;;;;;;;;;5115928;27;20052;-68
2021/12/22 00:36:51;;;;;;;30.33;19.60;;;;;;;;;;5114070;27;45419;-68
2021/12/22 00:39:17;;;;;;;30.92;20.63;;;;;;;;;;5132431;27;20052;-67
2021/12/22 00:41:43;;;;;;;31.37;21.07;;;;;;;;;;5126143;27;20062;-67
2021/12/22 00:44:12;;;;;;;32.97;21.45;;;;;;;;;;5130988;27;20495;-67
2021/12/22 00:46:38;;;;;;;37.25;20.88;;;;;;;;;;5134967;27;20048;-67
2021/12/22 00:49:04;;;;;;;35.47;19.70;;;;;;;;;;5135075;27;20052;-68
2021/12/22 00:51:31;;;;;;;37.27;21.50;;;;;;;;;;5135133;27;20518;-68
2021/12/22 00:53:57;;;;;;;38.77;22.50;;;;;;;;;;5134839;27;20051;-68
2021/12/22 00:56:23;;;;;;;37.47;21.45;;;;;;;;;;5127725;27;20151;-67
2021/12/22 00:58:49;;;;;;;31.92;21.05;;;;;;;;;;5130314;27;20422;-67
2021/12/22 01:01:16;;;;;;;40.20;23.58;;;;;;;;;;5134674;27;20069;-67
2021/12/22 01:03:42;;;;;;;37.65;21.95;;;;;;;;;;5134173;27;20052;-68
2021/12/22 01:06:08;;;;;;;34.90;22.85;;;;;;;;;;5133977;27;20055;-68
2021/12/22 01:08:35;;;;;;;39.90;22.25;;;;;;;;;;5134022;27;20430;-68
2021/12/22 01:11:01;;;;;;;40.03;21.77;;;;;;;;;;5134859;27;20130;-67
2021/12/22 01:13:29;;;;;;;38.47;22.08;;;;;;;;;;5133803;27;20487;-68
2021/12/22 01:15:55;;;;;;;37.92;22.38;;;;;;;;;;5134550;27;20074;-68
2021/12/22 01:18:30;;;;;;;32.78;21.42;;;;;;;;;;5134497;27;20079;-67
2021/12/22 01:23:26;;;;;;;39.83;22.65;;;;;;;;;;5134083;27;20048;-68
2021/12/22 01:25:52;;;;;;;33.97;21.42;;;;;;;;;;5135053;27;20040;-68
2021/12/22 01:28:22;;;;;;;35.83;20.52;;;;;;;;;;5133832;27;20150;-68
2021/12/22 01:30:49;;;;;;;37.88;20.38;;;;;;;;;;5115447;27;20044;-69
2021/12/22 01:33:16;;;;;;;38.25;21.88;;;;;;;;;;5132926;27;20052;-69
2021/12/22 01:35:42;;;;;;;39.28;21.67;;;;;;;;;;5125945;27;20052;-68
2021/12/22 01:38:09;;;;;;;34.15;22.33;;;;;;;;;;5124677;27;20489;-68
2021/12/22 01:40:38;;;;;;;34.03;21.23;;;;;;;;;;5134094;27;20124;-68
2021/12/22 01:43:05;;;;;;;38.55;21.67;;;;;;;;;;5118531;27;20074;-68
2021/12/22 01:51:04;;;;;;;39.78;20.20;;;;;;;;;;5125432;27;20108;-68
2021/12/22 01:53:34;;;;;;;38.43;21.87;;;;;;;;;;5115718;27;20122;-68
2021/12/22 01:56:12;;;;;;;29.85;19.60;;;;;;;;;;5133055;27;20055;-68
2021/12/22 01:58:43;;;;;;;30.40;19.03;;;;;;;;;;5133560;27;20058;-68
2021/12/22 02:01:10;;;;;;;35.90;21.00;;;;;;;;;;5133210;27;20465;-69
2021/12/22 02:03:38;;;;;;;31.63;20.25;;;;;;;;;;5133556;27;20070;-69
2021/12/22 02:06:05;;;;;;;33.73;20.43;;;;;;;;;;5126509;27;20051;-68
2021/12/22 02:08:32;;;;;;;32.33;19.63;;;;;;;;;;5133206;27;20059;-68
2021/12/22 02:10:59;;;;;;;35.40;21.45;;;;;;;;;;5133430;27;20048;-69
2021/12/22 02:13:31;;;;;;;30.17;18.77;;;;;;;;;;5133490;27;20484;-68
2021/12/22 02:16:06;;;;;;;30.53;19.50;;;;;;;;;;5137301;27;20073;-68
2021/12/22 02:18:33;;;;;;;33.60;17.90;;;;;;;;;;5136525;27;20052;-68
2021/12/22 02:20:59;;;;;;;30.03;19.20;;;;;;;;;;5136428;27;20047;-68
2021/12/22 02:23:26;;;;;;;33.40;20.27;;;;;;;;;;5136938;27;20054;-68
2021/12/22 02:25:57;;;;;;;34.00;18.42;;;;;;;;;;5137021;27;20189;-69
2021/12/22 02:28:28;;;;;;;34.70;19.27;;;;;;;;;;5134553;27;20062;-68
2021/12/22 02:30:55;;;;;;;32.00;20.40;;;;;;;;;;5124597;27;20062;-68
2021/12/22 02:33:24;;;;;;;31.10;18.63;;;;;;;;;;5136311;27;20052;-68
2021/12/22 02:38:41;;;;;;;27.95;17.88;;;;;;;;;;5136670;27;20521;-69
2021/12/22 02:41:10;;;;;;;34.97;19.67;;;;;;;;;;5136117;27;20058;-69
2021/12/22 02:43:43;;;;;;;30.03;17.97;;;;;;;;;;5135183;27;20058;-69
2021/12/22 02:46:10;;;;;;;26.13;17.87;;;;;;;;;;5131748;27;20052;-68
2021/12/22 02:48:36;;;;;;;32.42;18.58;;;;;;;;;;5135952;27;20079;-68
2021/12/22 02:51:03;;;;;;;32.40;18.60;;;;;;;;;;5136069;27;20047;-68
2021/12/22 02:53:39;;;;;;;29.75;18.33;;;;;;;;;;5137055;27;20048;-68
2021/12/22 02:56:25;;;;;;;30.07;18.13;;;;;;;;;;5134395;27;20055;-68
2021/12/22 03:03:58;;;;;;;29.03;17.33;;;;;;;;;;5135912;27;46755;-68
2021/12/22 03:06:35;;;;;;;29.43;17.60;;;;;;;;;;5136478;27;20054;-67
2021/12/22 03:09:19;;;;;;;27.67;17.30;;;;;;;;;;5132159;27;20056;-68
2021/12/22 03:11:46;;;;;;;27.63;18.30;;;;;;;;;;5134670;27;20054;-68
2021/12/22 03:14:13;;;;;;;27.93;17.77;;;;;;;;;;5136231;27;20043;-67
2021/12/22 03:16:43;;;;;;;35.78;18.52;;;;;;;;;;5136689;27;20047;-68
2021/12/22 03:19:11;;;;;;;28.80;18.10;;;;;;;;;;5135965;27;20043;-67
2021/12/22 03:21:38;;;;;;;32.53;18.83;;;;;;;;;;5135994;27;20512;-67
2021/12/22 03:24:04;;;;;;;29.27;17.52;;;;;;;;;;5134469;27;20048;-68
2021/12/22 03:26:31;;;;;;;27.83;17.67;;;;;;;;;;5134898;27;20079;-67
2021/12/22 03:28:58;;;;;;;26.50;17.53;;;;;;;;;;5135902;27;20524;-68
2021/12/22 03:31:24;;;;;;;27.80;18.03;;;;;;;;;;5135597;27;20450;-68
2021/12/22 03:33:51;;;;;;;30.67;18.37;;;;;;;;;;5132987;27;20110;-68
2021/12/22 03:36:17;;;;;;;27.10;18.03;;;;;;;;;;5134882;27;20051;-68
2021/12/22 03:38:46;;;;;;;28.50;18.10;;;;;;;;;;5134735;27;20059;-68
2021/12/22 03:41:12;;;;;;;31.80;18.00;;;;;;;;;;5135401;27;20059;-67
2021/12/22 03:43:38;;;;;;;27.23;17.27;;;;;;;;;;5135436;27;20052;-68
2021/12/22 03:46:07;;;;;;;26.87;17.70;;;;;;;;;;5135732;27;20548;-68
2021/12/22 03:48:33;;;;;;;27.53;18.33;;;;;;;;;;5131963;27;20060;-69
2021/12/22 03:51:00;;;;;;;32.93;19.10;;;;;;;;;;5134144;27;20047;-69
2021/12/22 03:53:26;;;;;;;30.70;17.60;;;;;;;;;;5134647;27;20052;-69
2021/12/22 03:55:53;;;;;;;35.30;18.53;;;;;;;;;;5135735;27;20058;-67
2021/12/22 03:58:20;;;;;;;39.00;19.15;;;;;;;;;;5135401;27;20056;-68
2021/12/22 04:00:49;;;;;;;31.03;18.30;;;;;;;;;;5133009;27;20143;-68
2021/12/22 04:03:20;;;;;;;37.37;18.70;;;;;;;;;;5135370;27;20055;-68
2021/12/22 04:05:47;;;;;;;33.63;18.33;;;;;;;;;;5134291;27;20054;-67
2021/12/22 04:08:17;;;;;;;28.33;17.02;;;;;;;;;;5134603;27;20062;-67
2021/12/22 04:10:47;;;;;;;30.88;18.05;;;;;;;;;;5134989;27;20062;-69
2021/12/22 04:13:14;;;;;;;30.95;17.85;;;;;;;;;;5135373;27;20059;-69
2021/12/22 04:15:41;;;;;;;27.05;17.65;;;;;;;;;;5119818;27;20488;-69
2021/12/22 04:18:08;;;;;;;35.47;18.75;;;;;;;;;;5122444;27;20056;-67
2021/12/22 04:20:35;;;;;;;32.67;18.70;;;;;;;;;;5125364;27;20047;-68
2021/12/22 04:23:01;;;;;;;34.25;17.73;;;;;;;;;;5135351;27;20056;-69
2021/12/22 04:25:28;;;;;;;28.80;17.17;;;;;;;;;;5134432;27;20054;-69
2021/12/22 04:27:56;;;;;;;28.42;18.25;;;;;;;;;;5134849;27;20380;-68
2021/12/22 04:30:23;;;;;;;28.92;17.67;;;;;;;;;;5134709;27;20062;-68
2021/12/22 04:32:50;;;;;;;32.13;16.67;;;;;;;;;;5134522;27;20078;-69
2021/12/22 04:35:16;;;;;;;30.58;18.52;;;;;;;;;;5134915;27;20047;-70
2021/12/22 04:37:43;;;;;;;34.65;17.35;;;;;;;;;;5134693;27;20056;-68
2021/12/22 04:40:09;;;;;;;27.98;16.48;;;;;;;;;;5132902;27;20048;-69
2021/12/22 04:42:36;;;;;;;28.23;18.27;;;;;;;;;;5135626;27;20083;-69
2021/12/22 04:45:05;;;;;;;31.75;17.48;;;;;;;;;;5132395;27;20511;-68
2021/12/22 04:47:33;;;;;;;35.53;16.35;;;;;;;;;;5119948;27;20426;-68
2021/12/22 04:50:01;;;;;;;31.40;16.93;;;;;;;;;;5134024;27;20059;-68
2021/12/22 04:52:35;;;;;;;30.48;16.23;;;;;;;;;;5134713;27;20044;-70
2021/12/22 04:55:04;;;;;;;29.40;18.40;;;;;;;;;;5134388;27;20503;-69
2021/12/22 04:57:32;;;;;;;24.50;15.60;;;;;;;;;;5132239;27;20048;-67
2021/12/22 04:59:59;;;;;;;28.07;16.53;;;;;;;;;;5115965;27;20048;-68
2021/12/22 05:02:25;;;;;;;30.70;16.63;;;;;;;;;;5133012;27;20479;-70
2021/12/22 05:04:51;;;;;;;33.47;16.83;;;;;;;;;;5128644;27;20066;-68
2021/12/22 05:07:18;;;;;;;31.55;17.63;;;;;;;;;;5134352;27;20051;-68
2021/12/22 05:09:44;;;;;;;25.42;16.15;;;;;;;;;;5132001;27;20051;-68
2021/12/22 05:12:10;;;;;;;30.80;15.95;;;;;;;;;;5122370;27;20048;-69
2021/12/22 05:14:39;;;;;;;33.42;16.92;;;;;;;;;;5121778;27;20058;-68
2021/12/22 05:17:07;;;;;;;27.10;15.87;;;;;;;;;;5134858;27;20145;-68
2021/12/22 05:19:33;;;;;;;33.33;16.60;;;;;;;;;;5133719;27;20050;-68
2021/12/22 05:21:59;;;;;;;32.10;16.17;;;;;;;;;;5134124;27;20051;-68
2021/12/22 05:24:25;;;;;;;33.53;17.48;;;;;;;;;;5134226;27;20058;-69
2021/12/22 05:26:52;;;;;;;28.40;15.83;;;;;;;;;;5134173;27;20055;-69
2021/12/22 05:29:18;;;;;;;29.83;16.43;;;;;;;;;;5130229;27;20193;-67
2021/12/22 05:31:46;;;;;;;31.73;16.67;;;;;;;;;;5133584;27;20051;-69
2021/12/22 05:34:12;;;;;;;31.93;15.97;;;;;;;;;;5118639;27;20054;-68
2021/12/22 05:36:39;;;;;;;27.70;16.60;;;;;;;;;;5126904;27;20055;-69
2021/12/22 05:39:05;;;;;;;35.50;17.47;;;;;;;;;;5114317;27;20052;-69
2021/12/22 05:41:32;;;;;;;32.60;16.65;;;;;;;;;;5121183;27;20063;-70
2021/12/22 05:43:58;;;;;;;33.80;16.25;;;;;;;;;;5120524;27;20051;-69
2021/12/22 05:46:24;;;;;;;27.65;16.20;;;;;;;;;;5133312;27;20506;-68
2021/12/22 05:48:51;;;;;;;24.55;14.88;;;;;;;;;;5118307;27;20086;-70
2021/12/22 05:51:17;;;;;;;32.83;15.93;;;;;;;;;;5136118;27;20048;-68
2021/12/22 05:53:43;;;;;;;28.30;15.77;;;;;;;;;;5119662;27;20504;-70
2021/12/22 05:56:12;;;;;;;25.17;14.63;;;;;;;;;;5120347;27;20135;-68
2021/12/22 05:58:39;;;;;;;27.73;16.27;;;;;;;;;;5128764;27;20047;-69
2021/12/22 06:01:05;;;;;;;38.58;17.05;;;;;;;;;;5134820;27;20483;-69
2021/12/22 06:03:31;;;;;;;39.05;15.82;;;;;;;;;;5135392;27;20058;-70
2021/12/22 06:05:58;;;;;;;32.73;16.77;;;;;;;;;;5121492;27;20060;-69
2021/12/22 06:08:24;;;;;;;29.77;16.43;;;;;;;;;;5136171;27;20154;-69
2021/12/22 06:10:50;;;;;;;24.27;15.00;;;;;;;;;;5137161;27;20502;-70
2021/12/22 06:13:16;;;;;;;33.20;16.37;;;;;;;;;;5137526;27;20047;-69
2021/12/22 06:15:43;;;;;;;24.08;15.27;;;;;;;;;;5136944;27;20062;-70
2021/12/22 06:18:09;;;;;;;28.53;16.03;;;;;;;;;;5124804;27;20058;-70
2021/12/22 06:20:42;;;;;;;31.47;17.00;;;;;;;;;;5130510;27;20052;-69
2021/12/22 06:23:09;;;;;;;32.87;17.37;;;;;;;;;;5137207;27;20047;-69
2021/12/22 06:25:35;;;;;;;24.65;15.90;;;;;;;;;;5122047;27;20052;-69
2021/12/22 06:28:01;;;;;;;31.73;16.13;;;;;;;;;;5133074;27;20051;-70
2021/12/22 06:30:28;;;;;;;29.95;15.60;;;;;;;;;;5118873;27;20056;-69
2021/12/22 06:32:54;;;;;;;29.67;15.93;;;;;;;;;;5119690;27;20062;-69
2021/12/22 06:35:27;;;;;;;33.27;15.97;;;;;;;;;;5132680;27;20094;-69
2021/12/22 06:37:54;;;;;;;27.00;15.73;;;;;;;;;;5127614;27;20054;-69
2021/12/22 06:40:20;;;;;;;28.23;15.95;;;;;;;;;;5133420;27;20052;-68
2021/12/22 06:42:47;;;;;;;28.83;17.83;;;;;;;;;;5131085;27;20051;-67
2021/12/22 06:45:13;;;;;;;30.17;16.30;;;;;;;;;;5131561;27;20058;-67
2021/12/22 06:47:40;;;;;;;27.55;16.20;;;;;;;;;;5127275;27;20051;-67
2021/12/22 06:50:07;;;;;;;28.53;15.47;;;;;;;;;;5131558;27;20056;-68
2021/12/22 06:52:34;;;;;;;43.58;17.13;;;;;;;;;;5134379;27;20046;-68
2021/12/22 06:55:06;;;;;;;26.27;16.02;;;;;;;;;;5136069;27;20056;-69
2021/12/22 06:57:33;;;;;;;34.23;17.23;;;;;;;;;;5135990;27;20044;-69
2021/12/22 07:00:02;;;;;;;31.50;16.67;;;;;;;;;;5125521;27;20059;-72
2021/12/22 07:02:31;;;;;;;25.50;14.87;;;;;;;;;;5132799;27;20545;-68
2021/12/22 07:04:57;;;;;;;32.77;15.87;;;;;;;;;;5131286;27;20055;-68
2021/12/22 07:07:24;;;;;;;26.48;15.90;;;;;;;;;;5147926;27;20055;-69
2021/12/22 07:09:50;;;;;;;28.67;15.73;;;;;;;;;;5145774;27;20059;-67
2021/12/22 07:12:16;;;;;;;28.77;16.20;;;;;;;;;;5155046;27;20048;-69
2021/12/22 07:14:42;;;;;;;27.90;16.20;;;;;;;;;;5144608;27;20055;-69
2021/12/22 07:17:09;;;;;;;31.70;16.93;;;;;;;;;;5136236;27;20054;-68
2021/12/22 07:19:36;;;;;;;27.37;15.73;;;;;;;;;;5136404;27;20094;-68
2021/12/22 07:22:02;;;;;;;27.13;15.97;;;;;;;;;;5136429;27;20062;-68
2021/12/22 07:24:28;;;;;;;30.03;16.43;;;;;;;;;;5122483;27;20055;-68
2021/12/22 07:26:55;;;;;;;33.80;17.13;;;;;;;;;;5115827;28;20056;-67
2021/12/22 07:29:21;;;;;;;27.87;16.37;;;;;;;;;;5127950;27;20054;-67
2021/12/22 07:31:47;;;;;;;34.00;16.88;;;;;;;;;;5136284;27;20052;-67
2021/12/22 07:34:20;;;;;;;29.67;15.30;;;;;;;;;;5136418;27;20054;-67
2021/12/22 07:36:50;;;;;;;32.93;16.67;;;;;;;;;;5136601;27;20055;-68
2021/12/22 07:39:16;;;;;;;29.33;15.70;;;;;;;;;;5135806;27;20062;-68
2021/12/22 07:41:42;;;;;;;32.83;15.43;;;;;;;;;;5121475;27;20063;-67
2021/12/22 07:44:09;;;;;;;30.90;17.20;;;;;;;;;;5115420;28;20127;-68
2021/12/22 07:46:36;;;;;;;32.80;15.73;;;;;;;;;;5131251;27;20052;-67
2021/12/22 07:49:03;;;;;;;29.77;16.47;;;;;;;;;;5128103;27;20533;-68
2021/12/22 07:51:29;;;;;;;32.37;17.13;;;;;;;;;;5126660;27;20054;-67
2021/12/22 07:53:55;;;;;;;30.40;16.23;;;;;;;;;;5135785;27;20055;-66
2021/12/22 07:56:22;;;;;;;35.60;16.73;;;;;;;;;;5130422;27;20054;-68
2021/12/22 07:58:48;;;;;;;28.13;16.00;;;;;;;;;;5135769;27;20047;-69
2021/12/22 08:01:14;;;;;;;31.50;15.77;;;;;;;;;;5134978;27;20047;-68
2021/12/22 08:03:41;;;;;;;37.85;16.85;;;;;;;;;;5134742;27;20054;-68
2021/12/22 08:06:09;;;;;;;36.15;16.40;;;;;;;;;;5134936;27;20078;-70
2021/12/22 08:08:35;;;;;;;28.60;16.30;;;;;;;;;;5134880;27;20089;-68
2021/12/22 08:11:02;;;;;;;27.87;15.67;;;;;;;;;;5134369;27;20058;-68
2021/12/22 08:13:28;;;;;;;31.15;15.40;;;;;;;;;;5134474;27;20064;-69
2021/12/22 08:15:54;;;;;;;29.47;15.87;;;;;;;;;;5134653;27;20056;-69
2021/12/22 08:18:21;;;;;;;28.73;16.43;;;;;;;;;;5129201;27;20044;-67
2021/12/22 08:20:47;;;;;;;29.33;16.60;;;;;;;;;;5154890;27;20051;-68
2021/12/22 08:23:13;;;;;;;35.50;18.03;;;;;;;;;;5149843;27;20050;-68
2021/12/22 08:25:40;;;;;;;32.47;16.17;;;;;;;;;;5135047;27;20048;-69
2021/12/22 08:28:06;;;;;;;32.07;16.70;;;;;;;;;;5129248;27;20047;-68
2021/12/22 08:30:32;;;;;;;25.60;15.90;;;;;;;;;;5135010;27;20126;-69
2021/12/22 08:33:01;;;;;;;29.87;15.30;;;;;;;;;;5130304;27;20052;-67
2021/12/22 08:35:29;;;;;;;30.63;17.17;;;;;;;;;;5147583;27;20055;-70
2021/12/22 08:40:42;;;;;;;30.30;15.25;;;;;;;;;;5133702;27;20058;-69
2021/12/22 08:43:08;;;;;;;27.17;15.20;;;;;;;;;;5134454;27;20056;-68
2021/12/22 08:45:36;;;;;;;28.90;16.47;;;;;;;;;;5115164;27;20502;-69
2021/12/22 08:48:02;;;;;;;31.10;15.10;;;;;;;;;;5112692;27;20062;-68
2021/12/22 08:50:30;;;;;;;32.63;17.53;;;;;;;;;;5124099;27;20059;-66
2021/12/22 08:52:56;;;;;;;27.27;16.30;;;;;;;;;;5133715;27;20537;-69
2021/12/22 08:55:22;;;;;;;37.77;16.40;;;;;;;;;;5132947;27;20051;-67
2021/12/22 08:57:49;;;;;;;33.00;17.00;;;;;;;;;;5128392;27;20051;-67
2021/12/22 09:00:15;;;;;;;34.37;16.10;;;;;;;;;;5131786;27;20051;-67
2021/12/22 09:02:44;;;;;;;25.90;15.73;;;;;;;;;;5132180;27;20055;-68
2021/12/22 09:05:10;;;;;;;34.33;16.57;;;;;;;;;;5134987;27;20083;-68
2021/12/22 09:07:37;;;;;;;32.40;16.47;;;;;;;;;;5134446;27;20051;-68
2021/12/22 09:10:03;;;;;;;32.40;17.83;;;;;;;;;;5134053;27;20052;-68
2021/12/22 09:12:29;;;;;;;31.23;16.73;;;;;;;;;;5134692;27;20047;-68
2021/12/22 09:14:56;;;;;;;27.87;15.83;;;;;;;;;;5134915;27;20051;-67
2021/12/22 09:17:22;;;;;;;26.83;16.07;;;;;;;;;;5133636;27;20051;-68
2021/12/22 09:19:52;;;;;;;22.47;14.10;;;;;;;;;;5125695;27;20060;-68
2021/12/22 09:22:18;;;;;;;27.93;15.93;;;;;;;;;;5130979;27;20518;-68
2021/12/22 09:24:44;;;;;;;27.97;16.50;;;;;;;;;;5133415;27;20054;-68
2021/12/22 09:27:11;;;;;;;30.80;15.43;;;;;;;;;;5117596;27;20083;-68
2021/12/22 09:29:39;;;;;;;29.13;15.97;;;;;;;;;;5132078;27;20051;-68
2021/12/22 09:32:06;;;;;;;26.45;15.10;;;;;;;;;;5134216;27;20052;-68
2021/12/22 09:34:32;;;;;;;30.07;15.73;;;;;;;;;;5134075;27;20481;-68
2021/12/22 09:36:58;;;;;;;26.37;15.07;;;;;;;;;;5134212;27;20074;-67
2021/12/22 09:39:25;;;;;;;28.60;16.00;;;;;;;;;;5134104;27;20098;-67
2021/12/22 09:41:51;;;;;;;25.67;14.83;;;;;;;;;;5132950;27;20147;-67
2021/12/22 09:44:17;;;;;;;29.33;16.77;;;;;;;;;;5114662;27;20600;-67
2021/12/22 09:46:46;;;;;;;27.97;16.00;;;;;;;;;;5113856;28;20514;-69
2021/12/22 09:49:45;;;;;;;34.37;16.57;;;;;;;;;;5113459;28;20428;-68
2021/12/22 09:52:18;;;;;;;30.43;14.97;;;;;;;;;;5114362;27;20048;-68
2021/12/22 09:54:50;;;;;;;28.93;14.93;;;;;;;;;;5124686;27;20052;-69
2021/12/22 09:57:17;;;;;;;28.83;15.57;;;;;;;;;;5132761;27;20054;-67
2021/12/22 09:59:45;;;;;;;27.97;15.03;;;;;;;;;;5134032;27;20047;-67
2021/12/22 10:02:11;;;;;;;27.40;16.67;;;;;;;;;;5129681;27;20056;-67
2021/12/22 10:04:38;;;;;;;28.57;15.67;;;;;;;;;;5132909;27;20125;-67
2021/12/22 10:07:04;;;;;;;29.50;14.43;;;;;;;;;;5134316;27;20047;-67
2021/12/22 10:09:31;;;;;;;27.55;15.23;;;;;;;;;;5149585;27;20154;-67
2021/12/22 10:12:04;;;;;;;29.80;16.83;;;;;;;;;;5154853;27;20058;-67
2021/12/22 10:14:47;;;;;;;25.35;14.25;;;;;;;;;;5128483;27;20052;-67
2021/12/22 10:17:25;;;;;;;32.10;15.90;;;;;;;;;;5125660;27;20052;-67
2021/12/22 10:19:53;;;;;;;28.65;15.18;;;;;;;;;;5130587;27;20499;-67
2021/12/22 10:22:27;;;;;;;30.20;15.73;;;;;;;;;;5154640;27;20146;-66
2021/12/22 10:24:59;;;;;;;27.48;15.55;;;;;;;;;;5142518;27;20044;-66
2021/12/22 10:27:27;;;;;;;32.27;15.27;;;;;;;;;;5133178;27;20051;-66
2021/12/22 10:29:53;;;;;;;24.00;14.43;;;;;;;;;;5133230;27;20051;-66
2021/12/22 10:32:19;;;;;;;28.93;15.53;;;;;;;;;;5133618;27;20058;-67
2021/12/22 10:34:58;;;;;;;28.43;14.87;;;;;;;;;;5132948;27;20051;-68
2021/12/22 10:37:31;;;;;;;26.83;15.33;;;;;;;;;;5136576;27;20048;-68
2021/12/22 10:39:58;;;;;;;27.58;16.52;;;;;;;;;;5132882;27;20109;-68
2021/12/22 10:42:38;;;;;;;25.43;15.20;;;;;;;;;;5123758;27;20051;-69
2021/12/22 10:45:14;;;;;;;35.25;15.70;;;;;;;;;;5135891;27;20079;-69
2021/12/22 10:50:33;;;;;;;26.23;14.88;;;;;;;;;;5133824;27;20059;-68
2021/12/22 10:53:00;;;;;;;25.90;14.30;;;;;;;;;;5135770;27;20047;-68
2021/12/22 10:55:34;;;;;;;25.15;15.07;;;;;;;;;;5126593;27;20056;-68
2021/12/22 10:58:00;;;;;;;29.63;15.70;;;;;;;;;;5131988;27;20122;-68
2021/12/22 11:00:27;;;;;;;28.03;15.27;;;;;;;;;;5115904;28;20051;-66
2021/12/22 11:03:04;;;;;;;26.70;15.60;;;;;;;;;;5128562;27;20518;-67
2021/12/22 11:05:30;;;;;;;24.03;14.43;;;;;;;;;;5116102;27;20662;-66
2021/12/22 11:08:00;;;;;;;26.73;15.20;;;;;;;;;;5127366;27;20058;-67
2021/12/22 11:10:27;;;;;;;23.40;14.02;;;;;;;;;;5135606;27;20688;-68
2021/12/22 11:13:01;;;;;;;25.80;15.15;;;;;;;;;;5133856;27;20067;-67
2021/12/22 11:15:27;;;;;;;31.83;16.35;;;;;;;;;;5113983;28;20431;-67
2021/12/22 11:17:53;;;;;;;24.98;15.50;;;;;;;;;;5140666;27;20054;-67
2021/12/22 11:20:23;;;;;;;22.38;14.35;;;;;;;;;;5115187;28;20052;-65
2021/12/22 11:22:58;;;;;;;25.00;14.88;;;;;;;;;;5097352;28;20074;-67
2021/12/22 11:25:25;;;;;;;26.23;15.68;;;;;;;;;;5113434;28;20044;-67
2021/12/22 11:27:53;;;;;;;25.45;15.15;;;;;;;;;;5113554;28;20052;-67
2021/12/22 11:30:21;;;;;;;22.77;14.18;;;;;;;;;;5106186;27;20059;-67
2021/12/22 11:32:48;;;;;;;29.38;15.00;;;;;;;;;;5134017;27;20048;-67
2021/12/22 11:35:15;;;;;;;23.48;14.52;;;;;;;;;;5133307;27;20564;-67
2021/12/22 11:37:42;;;;;;;23.27;14.55;;;;;;;;;;5134405;27;20062;-67
2021/12/22 11:40:10;;;;;;;24.50;14.77;;;;;;;;;;5134019;27;20561;-67
2021/12/22 11:42:40;;;;;;;27.17;14.68;;;;;;;;;;5132554;27;20522;-67
2021/12/22 11:45:10;;;;;;;23.20;14.85;;;;;;;;;;5113496;28;20487;-67
2021/12/22 11:47:37;;;;;;;25.88;15.45;;;;;;;;;;5126975;27;20051;-70
2021/12/22 11:50:05;;;;;;;23.38;14.27;;;;;;;;;;5122939;27;20099;-67
2021/12/22 11:52:34;;;;;;;26.80;15.63;;;;;;;;;;5118206;27;20415;-68
2021/12/22 11:55:14;;;;;;;26.00;14.45;;;;;;;;;;5132768;27;20057;-67
2021/12/22 11:57:41;;;;;;;29.80;15.63;;;;;;;;;;5130785;27;20506;-68
2021/12/22 12:00:43;;;;;;;28.77;15.00;;;;;;;;;;5134516;27;20040;-67
2021/12/22 12:03:23;;;;;;;24.85;14.93;;;;;;;;;;5066456;28;20484;-67
2021/12/22 12:06:08;;;;;;;26.75;14.43;;;;;;;;;;5128962;27;20046;-67
2021/12/22 12:08:37;;;;;;;25.30;14.32;;;;;;;;;;5140814;27;20058;-69
2021/12/22 12:11:05;;;;;;;26.33;14.73;;;;;;;;;;5132904;27;20055;-67
2021/12/22 12:13:37;;;;;;;23.73;14.95;;;;;;;;;;5133341;27;20043;-71
2021/12/22 12:22:17;;;;;;;24.50;14.32;;;;;;;;;;5133230;27;20058;-69
2021/12/22 12:24:43;;;;;;;;;;;;;;;;;;5140649;27;20055;-67
2021/12/22 12:27:28;;;;;;;22.37;14.00;;;;;;;;;;5141563;27;45702;-68
2021/12/22 12:30:01;;;;;;;26.03;14.63;;;;;;;;;;5131812;27;20602;-70
2021/12/22 12:32:39;;;;;;;22.75;13.63;;;;;;;;;;5132227;27;20048;-70
2021/12/22 12:35:23;;;;;;;25.17;14.98;;;;;;;;;;5132510;27;20495;-70
2021/12/22 12:38:12;;;;;;;22.15;14.43;;;;;;;;;;5131328;27;20047;-69
2021/12/22 12:41:00;;;;;;;20.00;13.55;;;;;;;;;;5131738;27;20052;-70
2021/12/22 12:43:45;;;;;;;25.05;14.32;;;;;;;;;;5132244;27;20071;-69
2021/12/22 12:46:35;;;;;;;24.80;14.45;;;;;;;;;;5132026;27;20055;-71
2021/12/22 12:49:05;;;;;;;23.85;15.35;;;;;;;;;;5123406;27;20048;-69
2021/12/22 12:51:33;;;;;;;25.00;13.85;;;;;;;;;;5125232;27;20956;-69
2021/12/22 12:54:04;;;;;;;28.00;14.27;;;;;;;;;;5129088;27;20150;-69
2021/12/22 12:56:31;;;;;;;23.33;14.45;;;;;;;;;;5117718;27;20048;-69
2021/12/22 12:58:58;;;;;;;21.92;14.10;;;;;;;;;;5111884;27;20063;-69
2021/12/22 13:01:43;;;;;;;23.58;14.43;;;;;;;;;;5112223;27;20056;-69
2021/12/22 13:04:30;;;;;;;25.63;14.65;;;;;;;;;;5112562;27;20560;-68
2021/12/22 13:07:07;;;;;;;28.75;14.68;;;;;;;;;;5111439;27;20083;-69
2021/12/22 13:09:34;;;;;;;19.45;12.63;;;;;;;;;;5112404;27;20091;-70
2021/12/22 13:12:12;;;;;;;24.67;13.50;;;;;;;;;;5123851;27;20515;-69
2021/12/22 13:17:25;;;;;;;28.17;13.57;;;;;;;;;;5110098;27;20052;-69
2021/12/22 13:19:55;;;;;;;23.98;13.20;;;;;;;;;;5118229;27;20403;-69
2021/12/22 13:22:21;;;;;;;21.33;12.98;;;;;;;;;;5127712;27;20118;-68
2021/12/22 13:24:47;;;;;;;23.77;14.27;;;;;;;;;;5112123;27;20490;-69
2021/12/22 13:27:29;;;;;;;21.88;13.98;;;;;;;;;;5116651;27;20055;-69
2021/12/22 13:30:16;;;;;;;28.65;14.90;;;;;;;;;;5114440;27;20048;-69
2021/12/22 13:33:02;;;;;;;24.75;14.07;;;;;;;;;;5114185;27;20074;-70
2021/12/22 13:35:28;;;;;;;19.40;13.45;;;;;;;;;;5111082;27;20559;-69
2021/12/22 13:37:54;;;;;;;19.38;13.77;;;;;;;;;;5111649;27;20052;-69
2021/12/22 13:40:31;;;;;;;25.30;14.48;;;;;;;;;;5093412;28;20055;-68
2021/12/22 13:42:58;;;;;;;19.90;13.70;;;;;;;;;;5119023;27;20044;-69
2021/12/22 13:45:24;;;;;;;21.50;13.77;;;;;;;;;;5117887;27;20478;-69
2021/12/22 13:47:52;;;;;;;25.60;14.68;;;;;;;;;;5111228;27;20059;-68
2021/12/22 13:50:19;;;;;;;23.58;13.48;;;;;;;;;;5123007;27;20052;-69
2021/12/22 13:52:46;;;;;;;20.65;14.57;;;;;;;;;;5128433;27;20139;-69
2021/12/22 13:55:12;;;;;;;25.25;14.68;;;;;;;;;;5120254;27;20062;-69
2021/12/22 13:57:38;;;;;;;21.88;13.63;;;;;;;;;;5112688;27;20059;-69
2021/12/22 14:00:06;;;;;;;25.88;14.75;;;;;;;;;;5115357;27;20052;-70
2021/12/22 14:02:33;;;;;;;23.80;15.15;;;;;;;;;;5119759;27;20130;-69
2021/12/22 14:05:17;;;;;;;21.98;13.68;;;;;;;;;;5139849;27;20048;-69
2021/12/22 14:07:43;;;;;;;25.23;14.30;;;;;;;;;;5119226;27;20467;-70
2021/12/22 14:10:11;;;;;;;20.17;12.73;;;;;;;;;;5115479;27;20499;-70
2021/12/22 14:12:39;;;;;;;23.95;13.65;;;;;;;;;;5125139;27;22144;-70
2021/12/22 14:15:06;;;;;;;21.08;13.65;;;;;;;;;;5122636;27;20052;-69
2021/12/22 14:17:51;;;;;;;21.92;13.85;;;;;;;;;;5133685;27;20056;-71
2021/12/22 14:20:17;;;;;;;21.42;13.82;;;;;;;;;;5121230;27;20057;-71
2021/12/22 14:22:57;;;;;;;22.52;13.38;;;;;;;;;;5127554;27;20051;-70
2021/12/22 14:25:26;;;;;;;22.40;14.60;;;;;;;;;;5114446;28;20504;-71
2021/12/22 14:27:53;;;;;;;23.50;14.25;;;;;;;;;;5114651;28;20495;-69
2021/12/22 14:30:24;;;;;;;23.25;15.30;;;;;;;;;;5118406;27;20056;-69
2021/12/22 14:32:56;;;;;;;27.42;16.75;;;;;;;;;;5118835;27;20523;-70
2021/12/22 14:35:23;;;;;;;26.85;15.95;;;;;;;;;;5115170;27;20500;-70
2021/12/22 14:37:57;;;;;;;30.65;15.90;;;;;;;;;;5127407;27;20056;-70
2021/12/22 14:40:24;;;;;;;28.45;15.32;;;;;;;;;;5118965;27;20052;-70
2021/12/22 14:42:55;;;;;;;22.38;15.35;;;;;;;;;;5120246;27;20495;-70
2021/12/22 14:45:27;;;;;;;20.40;15.32;;;;;;;;;;5096188;27;20055;-70
2021/12/22 14:48:19;;;;;;;23.15;14.52;;;;;;;;;;5113552;27;20059;-70
2021/12/22 14:51:01;;;;;;;24.00;14.80;;;;;;;;;;5111056;27;20068;-69
2021/12/22 14:53:40;;;;;;;21.15;14.82;;;;;;;;;;5121683;27;20044;-69
2021/12/22 14:56:08;;;;;;;27.33;15.82;;;;;;;;;;5125957;27;21007;-70
2021/12/22 14:58:34;;;;;;;23.40;15.25;;;;;;;;;;5132947;27;20048;-69
2021/12/22 15:01:01;;;;;;;25.67;17.25;;;;;;;;;;5116263;27;20488;-69